Terminal Aerodrome Forecast
Issued by NWS Burlington, VT

Home | Current Version | Previous Version | Text Only | Print | Product List | Glossary On
Versions: 1 2 3 4 5 6 7 8 9 10 11 12 13 14 15 16 17 18 19 20 21 22 23 24 25
000
FTUS41 KBTV 310700 AAA
TAFBTV
TAF AMD
KBTV 310711Z 3107/0106 18005KT P6SM BKN050 BKN080
      TEMPO 3107/3108 34005KT 6SM -SHRA BR OVC045
     FM311300 18008KT 6SM -SHRA BKN035 BKN060
     FM312000 19008KT P6SM VCSH BKN050
     FM010000 18006KT P6SM SCT050=

USA.gov is the U.S. government's official web portal to all federal, state and local government web resources and services.